Terminal Aerodrome Forecast
Issued by NWS

Home | Current Version | Previous Version | Text Only | Print | Product List | Glossary On
Versions: 1 2 3 4 5 6 7 8 9 10 11 12 13 14
467
FTUS44 KSJT 280520
TAFJCT
TAF
KJCT 280520Z 2806/2906 VRB06KT P6SM SCT120
     FM281800 17008KT P6SM SCT250 PROB30 2818/2824 P6SM TSRA
      BKN050CB=

USA.gov is the U.S. government's official web portal to all federal, state and local government web resources and services.